»·PEaware :: N7375Q KEMM-KLWL

N7375Q :: KEMM-KLWL

FLIGHT INFORMATION

Flight Status: Arrived
Operator: Privately registered:
United States
More flights under this callsign
Pilot: Ion I. (24133)
Aircraft: SOCATA TBM-900
(TBM9)
More flights by this aircraft type
Origin: KEMM Kemmerer Mun
United States
Destination: KLWL Wells Mun/Harriet
United States
More flights between these airports :: More routes between these airports
Route: +KEMRR5 FBR V288 LCU
File this flight plan on PilotEdge
Remarks:
Altitude:
(Current/Filed)
30,000ft
Speed:
(Current/Filed)
310kts
Departed: 20-Aug-20 08:37 PM
Arrived: 20-Aug-20 09:36 PM
Distance/Time
Traveled:
201nm/0:59
Distance/Time
To Go:
Arrived

Flight Plot

Page will automatically refresh every two minutes.

Flight plan parsing failed; only flown route is shown


Map Options




Map Legend


Flown Route
Filed Route
Departure Airport
Arrival Airport
Navaid (VOR, NDB)
Fix

Horizontal Profiles

Position Reports

Time Latitude Longitude Heading Altitude Ground
Speed
20-Aug-20 20:23 41.820294 -110.555995 356 7273ft 0kts
20-Aug-20 20:24 41.820294 -110.555995 356 7273ft 0kts
20-Aug-20 20:25 41.820294 -110.555995 356 7273ft 0kts
20-Aug-20 20:26 41.820294 -110.555995 356 7273ft 0kts
20-Aug-20 20:27 41.820294 -110.555995 356 7273ft 0kts
20-Aug-20 20:28 41.820294 -110.555995 356 7273ft 0kts
20-Aug-20 20:29 41.820294 -110.555995 356 7273ft 0kts
20-Aug-20 20:30 41.820367 -110.556000 356 7273ft 2kts
20-Aug-20 20:31 41.820144 -110.557064 180 7277ft 6kts
20-Aug-20 20:32 41.816997 -110.556609 172 7277ft 16kts
20-Aug-20 20:33 41.812433 -110.555935 173 7267ft 14kts
20-Aug-20 20:34 41.810923 -110.555284 220 7263ft 1kts
20-Aug-20 20:36 41.813731 -110.556117 352 7270ft 0kts
20-Aug-20 20:37 41.825297 -110.557939 347 7481ft 113kts
20-Aug-20 20:38 41.855725 -110.549822 75 9441ft 143kts
20-Aug-20 20:39 41.826273 -110.526887 173 11648ft 154kts
20-Aug-20 20:40 41.781984 -110.516523 175 13605ft 168kts
20-Aug-20 20:41 41.735330 -110.505783 175 15538ft 179kts
20-Aug-20 20:42 41.682347 -110.493596 175 17336ft 205kts
20-Aug-20 20:43 41.624964 -110.480417 175 19072ft 214kts
20-Aug-20 20:44 41.566281 -110.466935 175 20849ft 210kts
20-Aug-20 20:45 41.507772 -110.453581 176 22536ft 217kts
20-Aug-20 20:46 41.448131 -110.439955 176 24245ft 217kts
20-Aug-20 20:47 41.389347 -110.426553 176 25853ft 212kts
20-Aug-20 20:48 41.340955 -110.450777 250 27318ft 200kts
20-Aug-20 20:49 41.355806 -110.520005 307 28953ft 214kts
20-Aug-20 20:50 41.392989 -110.583657 300 30222ft 229kts
20-Aug-20 20:51 41.405923 -110.675505 279 30223ft 271kts
20-Aug-20 20:51 41.415108 -110.760903 279 30212ft 286kts
20-Aug-20 20:53 41.428399 -110.885374 279 30205ft 293kts
20-Aug-20 20:54 41.439798 -110.993199 279 30201ft 295kts
20-Aug-20 20:54 41.449288 -111.083677 279 30201ft 295kts
20-Aug-20 20:56 41.462442 -111.210256 279 30200ft 295kts
20-Aug-20 20:57 41.473602 -111.318802 279 30199ft 295kts
20-Aug-20 20:57 41.482791 -111.408924 279 30199ft 295kts
20-Aug-20 20:58 41.493759 -111.517427 279 30199ft 295kts
20-Aug-20 20:59 41.504591 -111.625698 279 30197ft 294kts
20-Aug-20 21:00 41.515371 -111.734458 278 30202ft 295kts
20-Aug-20 21:01 41.526018 -111.843023 278 30202ft 295kts
20-Aug-20 21:02 41.536629 -111.952281 278 30124ft 297kts
20-Aug-20 21:03 41.547157 -112.061761 278 30034ft 298kts
20-Aug-20 21:04 41.557554 -112.171036 278 30007ft 296kts
20-Aug-20 21:05 41.554970 -112.280646 264 30007ft 298kts
20-Aug-20 21:06 41.542187 -112.391093 263 29063ft 302kts
20-Aug-20 21:07 41.529135 -112.502418 263 28048ft 304kts
20-Aug-20 21:08 41.515924 -112.613787 263 27030ft 304kts
20-Aug-20 21:09 41.502577 -112.725356 262 26026ft 303kts
20-Aug-20 21:10 41.489336 -112.835231 262 25025ft 298kts
20-Aug-20 21:11 41.476101 -112.944012 262 24026ft 297kts
20-Aug-20 21:12 41.462788 -113.052624 262 23023ft 295kts
20-Aug-20 21:13 41.449376 -113.161192 261 21674ft 301kts
20-Aug-20 21:14 41.435639 -113.271422 261 20167ft 301kts
20-Aug-20 21:15 41.421973 -113.380280 260 18650ft 294kts
20-Aug-20 21:16 41.408426 -113.487280 260 17122ft 291kts
20-Aug-20 21:17 41.395003 -113.592528 260 15593ft 286kts
20-Aug-20 21:18 41.381611 -113.696728 259 14079ft 284kts
20-Aug-20 21:19 41.368270 -113.799759 259 12575ft 281kts
20-Aug-20 21:20 41.349421 -113.901389 253 11076ft 284kts
20-Aug-20 21:21 41.328129 -113.997064 254 10987ft 260kts
20-Aug-20 21:22 41.307667 -114.088495 253 10990ft 255kts
20-Aug-20 21:23 41.287343 -114.178893 254 10986ft 254kts
20-Aug-20 21:24 41.266984 -114.269113 254 10953ft 254kts
20-Aug-20 21:25 41.248556 -114.350451 254 10953ft 254kts
20-Aug-20 21:26 41.228007 -114.440728 254 10722ft 262kts
20-Aug-20 21:27 41.206814 -114.533419 255 9706ft 236kts
20-Aug-20 21:28 41.189199 -114.608821 256 8873ft 183kts
20-Aug-20 21:29 41.160406 -114.665232 232 7907ft 190kts
20-Aug-20 21:30 41.126543 -114.716549 232 7768ft 191kts
20-Aug-20 21:31 41.091192 -114.770890 233 7976ft 199kts
20-Aug-20 21:32 41.101616 -114.822465 283 7251ft 128kts
20-Aug-20 21:33 41.106815 -114.858650 278 6927ft 99kts
20-Aug-20 21:34 41.111737 -114.893438 278 6358ft 97kts
20-Aug-20 21:35 41.116180 -114.924002 282 5741ft 21kts
20-Aug-20 21:36 41.115451 -114.926238 279 5736ft 10kts
20-Aug-20 21:37 41.115575 -114.927112 125 5734ft 0kts
20-Aug-20 21:38 41.115575 -114.927112 125 5734ft 0kts
20-Aug-20 21:39 41.115575 -114.927112 124 5734ft 0kts

Navigation Log

Ident Type
Flight plan parsing failed, navigation log unavailable